ADDS METAR Data INFO
IDs: Format: Raw Decoded Include TAF

Data at: 0346 UTC 20 Feb 2018

KJXN 200256Z AUTO 20013KT 10SM SCT060 BKN070 OVC085 14/13 A2993 RMK AO2 PK WND 21027/0200 SLP139 60008 T01440128 53005
KJXN 200156Z 19017G23KT 10SM SCT016 BKN050 OVC095 14/13 A2992 RMK AO2 PK WND 22033/0120 RAE54 SLP137 P0002 T01390128
KJXN 200111Z 20020G29KT 10SM -RA SCT014 SCT043 OVC090 14/13 A2990 RMK AO2 PK WND 22029/0107 P0001 T01390128
KJXN 200056Z 20018G30KT 6SM RA BR SCT011 BKN016 OVC080 14/13 A2990 RMK AO2 PK WND 21030/0053 SLP129 P0006 T01390128
KJXN 200051Z 20019G27KT 6SM -RA BR FEW009 BKN013 OVC021 14/13 A2990 RMK AO2 PK WND 18027/0044 P0005
KJXN 200048Z 20016G27KT 6SM -RA BR FEW010 BKN015 OVC021 14/13 A2991 RMK AO2 PK WND 18027/0044 P0004 T01390128
KJXN 200035Z 19015G22KT 7SM -RA SCT010 BKN013 OVC021 14/13 A2992 RMK AO2 P0002 T01390128
KJXN 200008Z 20016G23KT 3SM -RA BR BKN009 OVC013 13/13 A2992 RMK AO2 P0001 T01330128
KJXN 200001Z 20016G21KT 2 1/2SM -RA BR SCT009 OVC012 13/13 A2992 RMK AO2 P0000 T01330128
KJXN 192356Z 20015G21KT 3SM -RA BR BKN009 OVC013 13/13 A2992 RMK AO2 RAB55 SLP135 P0000 60022 T01330128 10133 20050 53018
KJXN 192349Z 19014G24KT 3SM BR BKN009 OVC013 13/13 A2991 RMK AO2 T01330128
KJXN 192256Z 19014KT 10SM BKN010 OVC016 13/12 A2989 RMK AO2 SLP125 T01330122
KJXN 192249Z 19011KT 4SM BR BKN010 OVC014 13/12 A2989 RMK AO2 T01330122
KJXN 192218Z 19014KT 4SM BR OVC008 12/12 A2988 RMK AO2 CIG 006V012 T01220122
KJXN 192204Z 19011G20KT 2 1/2SM BR OVC007 12/12 A2987 RMK AO2 CIG 006V010 T01220122
KJXN 192156Z 19011KT 3SM BR OVC008 12/12 A2987 RMK AO2 RAE20 CIG 005V009 SLP120 P0001 T01220117
KJXN 192146Z 18012G22KT 3SM BR OVC008 12/12 A2986 RMK AO2 RAE20 CIG 005V010 P0001 T01220117
KJXN 192137Z 18012KT 2 1/2SM BR OVC008 12/12 A2986 RMK AO2 RAE20 CIG 005V011 P0001 T01220117
KJXN 192110Z 18012G19KT 6SM -RA BR BKN008 OVC019 12/11 A2986 RMK AO2 P0001 T01170111
KJXN 192103Z 19012KT 4SM -RA BR BKN010 OVC019 12/11 A2986 RMK AO2 P0000 T01170111
KJXN 192056Z 19012KT 2 1/2SM RA BR BKN010 OVC019 11/11 A2986 RMK AO2 RAE36B43 SLP117 P0002 60021 T01110106 56014
KJXN 192047Z 18014G22KT 1 3/4SM -RA BR BKN010 OVC014 11/11 A2986 RMK AO2 RAE36B43 P0001 T01110106
KJXN 192037Z 19012G19KT 8SM OVC010 11/10 A2986 RMK AO2 RAE36 P0000 T01110100
KJXN 191956Z 16009KT 5SM -RA BR OVC008 09/08 A2986 RMK AO2 SLP118 P0011 T00890083
KJXN 191944Z 15008KT 5SM -RA BR BKN009 OVC015 08/08 A2986 RMK AO2 P0009 T00830078
KJXN 191930Z 15007KT 3SM RA BR FEW006 BKN010 OVC015 07/07 A2987 RMK AO2 P0007 T00720067
KJXN 191916Z 13006KT 2 1/2SM RA BR BKN006 OVC010 06/06 A2987 RMK AO2 P0005 T00610061
KJXN 191908Z 12006KT 2SM -RA BR BKN004 OVC009 06/06 A2988 RMK AO2 P0002 T00610056
KJXN 191856Z 12004KT 3SM RA BR OVC004 06/06 A2989 RMK AO2 RAB06 SLP128 P0008 T00560056
KJXN 191846Z 12005KT 3SM -RA BR OVC004 06/06 A2989 RMK AO2 RAB06 P0007 T00560056
KJXN 191827Z 12005KT 2 1/2SM -RA BR OVC003 05/05 A2990 RMK AO2 RAB06 P0003 T00500050
KJXN 191812Z 11004KT 1 3/4SM RA BR OVC003 05/05 A2991 RMK AO2 RAB06 P0002 T00500050
KJXN 191756Z 07006KT 5SM BR OVC003 05/05 A2990 RMK AO2 RAE50 SLP133 P0005 60005 T00500050 10056 20028 58013
KJXN 191722Z 11005KT 4SM -RA BR OVC003 06/06 A2995 RMK AO2 P0001 T00560056
KJXN 191708Z 12003KT 2SM -RA BR OVC003 06/06 A2996 RMK AO2 P0001 T00560056
KJXN 191656Z 15004KT 1 3/4SM -RA BR OVC003 06/06 A2997 RMK AO2 RAB37 SLP157 P0000 T00560056
KJXN 191556Z 17008KT 1SM BR OVC003 05/05 A2997 RMK AO2 SLP157 T00500050
KJXN 191538Z 18007KT 1 1/2SM BR OVC003 05/05 A2997 RMK AO2 T00500050
KJXN 191528Z 17006KT 2SM BR OVC003 05/05 A2997 RMK AO2 T00500050
KJXN 191456Z 17006KT 4SM BR OVC004 05/04 A2994 RMK AO2 SLP148 T00500044 56008
KJXN 191445Z 20005KT 4SM BR OVC004 04/04 A2995 RMK AO2 T00440044
KJXN 191356Z 17007KT 4SM BR OVC005 04/04 A2995 RMK AO2 CIG 004V009 SLP149 T00440039
KJXN 191351Z 17006KT 4SM BR OVC005 04/04 A2995 RMK AO2 CIG 004V008
KJXN 191336Z 17005KT 2 1/2SM BR OVC004 04/04 A2996 RMK AO2 CIG 004V008 T00390039
KJXN 191303Z 18006KT 1 1/4SM BR OVC004 03/03 A2997 RMK AO2 T00330028
KJXN 191256Z 18005KT 2SM BR OVC004 03/03 A2997 RMK AO2 SLP157 T00330028
KJXN 191236Z 16006KT 2SM BR OVC004 03/03 A2994 RMK AO2 CIG 003V008 T00280028
KJXN 191202Z 16006KT 2 1/2SM BR OVC008 03/02 A2994 RMK AO2 CIG 006V013 T00280022
KJXN 191156Z 16005KT 3SM BR OVC010 03/02 A2994 RMK AO2 CIG 007V013 SLP150 60000 T00280017 10033 20017 55008
KJXN 191142Z AUTO 17007KT 9SM BKN012 OVC018 03/01 A2994 RMK AO2 T00330011
KJXN 191056Z AUTO 15006KT 10SM BKN021 OVC065 03/00 A2994 RMK AO2 UPE05 SLP148 P0000 T00280000
KJXN 191047Z AUTO 15005KT 10SM BKN021 OVC060 03/00 A2995 RMK AO2 UPE05 P0000 T00280000
KJXN 190956Z AUTO 16010KT 10SM UP SCT065 OVC080 03/M01 A2995 RMK AO2 RAB46E56UPB56 SLP153 P0000 T00281006
KJXN 190856Z AUTO 15008KT 10SM SCT032 OVC042 03/M01 A2997 RMK AO2 SLP157 T00281006 55012
KJXN 190756Z AUTO 15011KT 10SM BKN033 02/M01 A2996 RMK AO2 SLP155 T00221011
KJXN 190656Z AUTO 14012G18KT 10SM CLR 02/M02 A2999 RMK AO2 SLP164 T00221017
KJXN 190556Z AUTO 14012KT 10SM CLR 02/M02 A3000 RMK AO2 PRESFR SLP169 T00221017 10022 21006 56030
KJXN 190456Z AUTO 15011KT 10SM CLR 01/M02 A3003 RMK AO2 SLP179 T00111017 400221044
KJXN 190356Z AUTO 13014G20KT 10SM CLR 01/M02 A3004 RMK AO2 SLP181 T00111017
KJXN 190256Z AUTO 14012KT 9SM CLR 01/M02 A3009 RMK AO2 SLP201 T00111017 56026
KJXN 190156Z 14009KT 8SM CLR 01/M02 A3012 RMK AO2 SLP210 T00061022
KJXN 190056Z 12007KT 9SM CLR 00/M03 A3014 RMK AO2 SLP218 T00001028
KJXN 182356Z 13007KT 10SM CLR M01/M03 A3017 RMK AO2 SLP230 T10061033 10017 21006 56015
KJXN 182256Z 14008KT 10SM CLR 01/M04 A3019 RMK AO2 SLP232 T00061039
KJXN 182156Z 12012KT 8SM CLR 01/M04 A3019 RMK AO2 SLP235 T00061039
KJXN 182056Z 13010KT 10SM CLR 02/M04 A3022 RMK AO2 SLP243 T00171039 58020
KJXN 181956Z 19010KT 10SM CLR 01/M04 A3026 RMK AO2 SLP258 T00111039
KJXN 181856Z 17012KT 10SM CLR 02/M03 A3028 RMK AO2 SLP266 T00171033
KJXN 181756Z 18012KT 10SM CLR 02/M04 A3028 RMK AO2 SLP263 T00171039 10022 21044 56006
KJXN 181656Z VRB04KT 10SM CLR 02/M04 A3028 RMK AO2 SLP266 T00171044 $
KJXN 181556Z 14006KT 10SM CLR 01/M04 A3027 RMK AO2 SLP264 T00061044 $